createdAt,value
2019-03-31T00:02:44.797Z,46.82
2019-03-31T00:05:37.144Z,47.42
2019-03-31T00:08:24.357Z,47.09
2019-03-31T00:11:12.526Z,47.41
2019-03-31T00:14:00.861Z,46.96
2019-03-31T00:16:52.192Z,46.84
2019-03-31T00:19:38.452Z,46.94
2019-03-31T00:22:26.974Z,46.95
2019-03-31T00:25:15.495Z,47.09
2019-03-31T00:28:03.468Z,46.68
2019-03-31T00:30:52.407Z,46.56
2019-03-31T00:33:40.880Z,46.18
2019-03-31T00:36:29.092Z,45.95
2019-03-31T00:39:17.407Z,45.60
2019-03-31T00:42:05.087Z,45.47
2019-03-31T00:44:52.805Z,45.55
2019-03-31T00:47:41.047Z,45.90
2019-03-31T00:50:29.012Z,45.83
2019-03-31T00:53:16.907Z,46.82
2019-03-31T00:56:05.083Z,48.07
2019-03-31T00:58:54.031Z,47.65
2019-03-31T01:01:48.730Z,48.50
2019-03-31T01:04:36.924Z,48.68
2019-03-31T01:07:27.402Z,47.60
2019-03-31T01:10:15.718Z,47.61
2019-03-31T01:13:04.064Z,48.17
2019-03-31T01:15:53.028Z,48.90
2019-03-31T01:18:41.086Z,48.43
2019-03-31T01:21:29.124Z,48.84
2019-03-31T01:24:17.381Z,49.10
2019-03-31T01:27:06.591Z,48.08
2019-03-31T01:29:55.059Z,48.19
2019-03-31T01:32:43.533Z,48.96
2019-03-31T01:35:31.789Z,48.79
2019-03-31T01:38:20.206Z,48.87
2019-03-31T01:41:08.518Z,48.99
2019-03-31T01:43:56.918Z,49.09
2019-03-31T01:46:45.055Z,49.47
2019-03-31T01:49:32.681Z,49.83
2019-03-31T01:52:20.835Z,49.99
2019-03-31T01:55:09.710Z,49.88
2019-03-31T01:57:57.944Z,49.93
2019-03-31T02:00:51.215Z,49.98
2019-03-31T02:03:39.039Z,50.46
2019-03-31T02:06:27.205Z,50.83
2019-03-31T02:09:15.443Z,51.09
2019-03-31T02:12:03.445Z,51.26
2019-03-31T02:14:51.280Z,51.85
2019-03-31T02:17:39.515Z,51.79
2019-03-31T02:20:27.411Z,51.49
2019-03-31T02:23:15.626Z,50.71
2019-03-31T02:26:04.062Z,50.99
2019-03-31T02:28:51.760Z,50.79
2019-03-31T02:31:39.734Z,50.74
2019-03-31T02:34:28.102Z,50.38
2019-03-31T02:37:16.169Z,50.23
2019-03-31T02:40:04.692Z,50.04
2019-03-31T02:42:52.735Z,49.76
2019-03-31T02:45:40.577Z,49.64
2019-03-31T02:48:28.909Z,50.27
2019-03-31T02:51:17.157Z,49.79
2019-03-31T02:54:05.298Z,50.64
2019-03-31T02:56:54.505Z,51.15
2019-03-31T02:59:43.304Z,50.92
2019-03-31T03:02:41.421Z,51.02
2019-03-31T03:05:24.129Z,51.45
2019-03-31T03:08:14.515Z,51.85
2019-03-31T03:11:03.287Z,51.77
2019-03-31T03:13:51.467Z,52.52
2019-03-31T03:16:40.103Z,53.26
2019-03-31T03:19:28.212Z,53.12
2019-03-31T03:22:16.207Z,52.33
2019-03-31T03:25:04.029Z,52.11
2019-03-31T03:27:51.986Z,51.68
2019-03-31T03:30:40.355Z,51.67
2019-03-31T03:33:28.716Z,51.88
2019-03-31T03:36:17.482Z,52.06
2019-03-31T03:39:07.623Z,52.81
2019-03-31T03:41:55.151Z,53.06
2019-03-31T03:44:43.135Z,53.31
2019-03-31T03:47:31.598Z,53.28
2019-03-31T03:50:19.322Z,52.92
2019-03-31T03:53:07.675Z,53.44
2019-03-31T03:55:55.796Z,53.86
2019-03-31T03:58:44.078Z,54.01
2019-03-31T04:01:32.915Z,53.63
2019-03-31T04:04:21.046Z,53.96
2019-03-31T04:07:09.617Z,54.36
2019-03-31T04:09:57.884Z,54.08
2019-03-31T04:12:46.088Z,54.89
2019-03-31T04:15:33.716Z,54.88
2019-03-31T04:18:21.960Z,54.74
2019-03-31T04:21:10.040Z,54.60
2019-03-31T04:23:58.658Z,54.33
2019-03-31T04:26:46.611Z,54.28
2019-03-31T04:29:34.676Z,54.56
2019-03-31T04:32:22.766Z,54.02
2019-03-31T04:35:11.006Z,53.48
2019-03-31T04:37:59.152Z,53.86
2019-03-31T04:40:47.464Z,53.60
2019-03-31T04:43:36.210Z,53.88
2019-03-31T04:46:24.515Z,54.18
2019-03-31T04:49:12.557Z,54.45
2019-03-31T04:52:00.871Z,54.37
2019-03-31T04:54:49.303Z,54.55
2019-03-31T04:57:37.279Z,54.44
2019-03-31T05:00:25.796Z,54.22
2019-03-31T05:03:13.705Z,54.28
2019-03-31T05:06:01.930Z,54.29
2019-03-31T05:08:49.642Z,54.58
2019-03-31T05:11:37.933Z,55.46
2019-03-31T05:14:25.966Z,54.87
2019-03-31T05:17:13.960Z,54.78
2019-03-31T05:20:02.088Z,55.31
2019-03-31T05:22:52.704Z,55.45
2019-03-31T05:25:39.535Z,55.81
2019-03-31T05:28:27.694Z,55.83
2019-03-31T05:31:15.821Z,55.47
2019-03-31T05:34:18.089Z,55.11
2019-03-31T05:36:53.266Z,55.45
2019-03-31T05:39:41.679Z,55.30
2019-03-31T05:42:29.996Z,54.75
2019-03-31T05:45:18.072Z,53.79
2019-03-31T05:48:06.564Z,51.71
2019-03-31T05:50:54.772Z,49.58
2019-03-31T05:53:43.018Z,49.04
2019-03-31T05:56:31.287Z,47.95
2019-03-31T05:59:19.083Z,47.50
2019-03-31T06:02:06.830Z,47.66
2019-03-31T06:04:54.777Z,47.63
2019-03-31T06:07:42.929Z,47.71
2019-03-31T06:10:30.969Z,46.32
2019-03-31T06:13:19.203Z,46.39
2019-03-31T06:16:07.548Z,45.34
2019-03-31T06:18:55.869Z,45.81
2019-03-31T06:21:44.142Z,45.60
2019-03-31T06:24:32.438Z,45.88
2019-03-31T06:27:20.642Z,44.37
2019-03-31T06:30:09.379Z,42.01
2019-03-31T06:32:57.724Z,42.05
2019-03-31T06:35:45.957Z,43.34
2019-03-31T06:38:33.934Z,43.62
2019-03-31T06:41:21.969Z,41.14
2019-03-31T06:44:10.489Z,39.96
2019-03-31T06:46:58.609Z,39.82
2019-03-31T06:49:46.891Z,40.31
2019-03-31T06:52:34.997Z,40.13
2019-03-31T06:55:23.178Z,39.84
2019-03-31T06:58:11.418Z,38.18
2019-03-31T07:00:59.861Z,36.58
2019-03-31T07:03:48.004Z,37.72
2019-03-31T07:06:36.185Z,38.49
2019-03-31T07:09:23.883Z,39.02
2019-03-31T07:12:12.299Z,36.83
2019-03-31T07:15:00.343Z,36.23
2019-03-31T07:17:49.339Z,34.17
2019-03-31T07:20:37.610Z,34.25
2019-03-31T07:23:25.665Z,33.69
2019-03-31T07:26:13.721Z,33.58
2019-03-31T07:29:02.033Z,32.11
2019-03-31T07:31:50.426Z,31.19
2019-03-31T07:34:38.558Z,32.49
2019-03-31T07:37:26.563Z,31.24
2019-03-31T07:40:15.176Z,31.22
2019-03-31T07:43:04.064Z,32.76
2019-03-31T07:45:52.001Z,32.34
2019-03-31T07:48:39.851Z,33.46
2019-03-31T07:51:28.067Z,34.13
2019-03-31T07:54:16.633Z,33.73
2019-03-31T07:57:06.985Z,33.46
2019-03-31T07:59:56.551Z,32.16
2019-03-31T08:02:44.455Z,32.05
2019-03-31T08:05:34.881Z,32.06
2019-03-31T08:08:22.259Z,31.95
2019-03-31T08:11:10.393Z,32.24
2019-03-31T08:13:58.151Z,32.68
2019-03-31T08:16:46.376Z,31.99
2019-03-31T08:19:34.290Z,32.24
2019-03-31T08:22:22.614Z,31.97
2019-03-31T08:25:12.299Z,31.71
2019-03-31T08:28:00.729Z,31.60
2019-03-31T08:30:48.772Z,30.75
2019-03-31T08:33:36.938Z,31.77
2019-03-31T08:36:25.373Z,31.54
2019-03-31T08:39:14.529Z,32.44
2019-03-31T08:42:02.784Z,32.20
2019-03-31T08:44:50.446Z,32.78
2019-03-31T08:47:38.685Z,32.68
2019-03-31T08:50:26.905Z,33.58
2019-03-31T08:53:15.365Z,33.41
2019-03-31T08:56:03.446Z,33.04
2019-03-31T08:58:51.689Z,33.14
2019-03-31T09:01:41.315Z,34.14
2019-03-31T09:04:29.896Z,34.95
2019-03-31T09:07:18.551Z,35.66
2019-03-31T09:10:07.361Z,35.85
2019-03-31T09:12:55.816Z,35.84
2019-03-31T09:15:44.199Z,35.44
2019-03-31T09:18:32.624Z,35.72
2019-03-31T09:21:21.006Z,35.60
2019-03-31T09:24:09.259Z,35.75
2019-03-31T09:26:57.427Z,35.12
2019-03-31T09:29:45.788Z,35.22
2019-03-31T09:32:33.963Z,35.17
2019-03-31T09:35:22.075Z,34.71
2019-03-31T09:38:10.407Z,34.20
2019-03-31T09:40:58.781Z,33.14
2019-03-31T09:43:46.922Z,32.96
2019-03-31T09:46:35.946Z,32.19
2019-03-31T09:49:24.314Z,32.69
2019-03-31T09:52:12.732Z,31.95
2019-03-31T09:55:00.815Z,31.97
2019-03-31T09:57:48.592Z,32.38
2019-03-31T10:00:45.163Z,32.56
2019-03-31T10:03:32.880Z,32.99
2019-03-31T10:06:30.003Z,32.48
2019-03-31T10:09:10.933Z,33.36
2019-03-31T10:11:59.373Z,33.36
2019-03-31T10:14:47.661Z,33.79
2019-03-31T10:17:35.692Z,33.31
2019-03-31T10:20:23.844Z,33.89
2019-03-31T10:23:11.918Z,32.67
2019-03-31T10:26:00.206Z,33.08
2019-03-31T10:28:48.559Z,33.48
2019-03-31T10:31:36.660Z,33.47
2019-03-31T10:34:24.934Z,33.13
2019-03-31T10:37:13.214Z,33.25
2019-03-31T10:40:01.386Z,33.18
2019-03-31T10:42:49.574Z,32.37
2019-03-31T10:45:38.206Z,33.10
2019-03-31T10:48:26.168Z,31.84
2019-03-31T10:51:14.119Z,32.03
2019-03-31T10:54:04.601Z,32.33
2019-03-31T10:56:52.616Z,31.70
2019-03-31T10:59:40.485Z,32.70
2019-03-31T11:02:28.628Z,33.22
2019-03-31T11:05:16.946Z,32.65
2019-03-31T11:08:05.869Z,32.54
2019-03-31T11:10:54.276Z,32.19
2019-03-31T11:13:42.587Z,32.63
2019-03-31T11:16:30.782Z,32.26
2019-03-31T11:19:18.957Z,31.08
2019-03-31T11:22:12.155Z,30.51
2019-03-31T11:25:00.683Z,30.75
2019-03-31T11:27:48.690Z,30.76
2019-03-31T11:30:36.893Z,30.25
2019-03-31T11:33:25.207Z,30.05
2019-03-31T11:36:13.567Z,29.60
2019-03-31T11:39:01.903Z,29.47
2019-03-31T11:41:49.866Z,29.86
2019-03-31T11:44:38.109Z,29.81
2019-03-31T11:47:26.118Z,30.10
2019-03-31T11:50:14.303Z,29.95
2019-03-31T11:53:02.330Z,30.01
2019-03-31T11:55:49.991Z,29.49
2019-03-31T11:58:37.990Z,29.64
2019-03-31T12:01:26.029Z,29.42
2019-03-31T12:04:15.493Z,29.46
2019-03-31T12:07:04.019Z,28.82
2019-03-31T12:09:52.000Z,28.54
2019-03-31T12:12:40.107Z,29.03
2019-03-31T12:15:28.157Z,28.03
2019-03-31T12:18:16.643Z,26.95
2019-03-31T12:21:04.736Z,26.62
2019-03-31T12:23:52.946Z,26.69
2019-03-31T12:26:40.921Z,26.48
2019-03-31T12:29:29.312Z,26.90
2019-03-31T12:32:18.043Z,26.31
2019-03-31T12:35:07.033Z,25.77
2019-03-31T12:37:55.520Z,25.63
2019-03-31T12:40:43.705Z,25.63
2019-03-31T12:43:31.821Z,25.74
2019-03-31T12:46:19.828Z,26.31
2019-03-31T12:49:07.965Z,26.02
2019-03-31T12:51:55.573Z,26.69
2019-03-31T12:54:43.885Z,26.88
2019-03-31T12:57:31.838Z,26.73
2019-03-31T13:00:20.518Z,26.61
2019-03-31T13:03:08.816Z,26.30
2019-03-31T13:05:57.057Z,26.39
2019-03-31T13:08:45.082Z,26.53
2019-03-31T13:11:33.552Z,26.45
2019-03-31T13:14:21.577Z,26.57
2019-03-31T13:17:09.507Z,27.07
2019-03-31T13:19:57.567Z,26.98
2019-03-31T13:22:46.125Z,26.73
2019-03-31T13:25:34.124Z,26.29
2019-03-31T13:28:22.034Z,26.32
2019-03-31T13:31:10.406Z,26.61
2019-03-31T13:33:58.614Z,26.81
2019-03-31T13:36:46.967Z,26.01
2019-03-31T13:39:35.088Z,26.18
2019-03-31T13:42:23.575Z,26.61
2019-03-31T13:45:11.839Z,26.62
2019-03-31T13:47:59.780Z,26.89
2019-03-31T13:50:47.887Z,26.61
2019-03-31T13:53:35.821Z,26.49
2019-03-31T13:56:23.845Z,26.42
2019-03-31T13:59:11.941Z,26.54
2019-03-31T14:02:00.335Z,26.19
2019-03-31T14:04:51.849Z,26.14
2019-03-31T14:07:38.305Z,26.10
2019-03-31T14:10:26.199Z,25.32
2019-03-31T14:13:14.141Z,25.77
2019-03-31T14:16:02.235Z,25.74
2019-03-31T14:18:51.375Z,25.88
2019-03-31T14:21:40.172Z,25.84
2019-03-31T14:24:28.396Z,25.81
2019-03-31T14:27:16.544Z,25.96
2019-03-31T14:30:05.380Z,25.56
2019-03-31T14:32:53.622Z,25.84
2019-03-31T14:35:41.763Z,25.19
2019-03-31T14:38:40.003Z,25.16
2019-03-31T14:41:19.510Z,24.93
2019-03-31T14:44:07.450Z,25.07
2019-03-31T14:46:55.482Z,24.63
2019-03-31T14:49:43.830Z,24.36
2019-03-31T14:52:31.615Z,24.91
2019-03-31T14:55:19.388Z,24.57
2019-03-31T14:58:08.508Z,24.81
2019-03-31T15:00:56.484Z,24.82
2019-03-31T15:03:44.829Z,24.96
2019-03-31T15:06:32.498Z,24.78
2019-03-31T15:09:20.380Z,24.65
2019-03-31T15:12:08.321Z,24.64
2019-03-31T15:14:56.496Z,24.59
2019-03-31T15:17:44.728Z,24.72
2019-03-31T15:20:32.996Z,25.07
2019-03-31T15:23:29.105Z,25.69
2019-03-31T15:26:11.040Z,24.51
2019-03-31T15:28:59.410Z,25.32
2019-03-31T15:31:48.276Z,24.98
2019-03-31T15:34:36.714Z,25.12
2019-03-31T15:37:25.104Z,25.35
2019-03-31T15:40:13.316Z,25.24
2019-03-31T15:43:01.492Z,25.28
2019-03-31T15:45:49.398Z,25.42
2019-03-31T15:48:37.469Z,25.52
2019-03-31T15:51:25.511Z,25.11
2019-03-31T15:54:13.375Z,25.42
2019-03-31T15:57:01.399Z,25.13
2019-03-31T15:59:52.733Z,25.29
2019-03-31T16:02:40.810Z,25.41
2019-03-31T16:05:28.999Z,25.83
2019-03-31T16:08:16.445Z,25.75
2019-03-31T16:11:04.905Z,25.13
2019-03-31T16:13:52.650Z,24.84
2019-03-31T16:16:40.090Z,24.76
2019-03-31T16:19:27.620Z,24.83
2019-03-31T16:22:15.102Z,24.88
2019-03-31T16:25:03.541Z,25.20
2019-03-31T16:27:50.636Z,25.41
2019-03-31T16:30:38.524Z,25.60
2019-03-31T16:33:26.313Z,25.31
2019-03-31T16:36:13.512Z,25.97
2019-03-31T16:39:00.631Z,25.59
2019-03-31T16:41:48.790Z,25.48
2019-03-31T16:44:36.218Z,25.20
2019-03-31T16:47:24.069Z,25.51
2019-03-31T16:50:12.459Z,25.59
2019-03-31T16:52:59.923Z,25.79
2019-03-31T16:55:47.562Z,25.82
2019-03-31T16:58:35.194Z,26.12
2019-03-31T17:01:22.840Z,25.99
2019-03-31T17:04:10.830Z,25.83
2019-03-31T17:06:58.452Z,25.83
2019-03-31T17:09:51.753Z,26.14
2019-03-31T17:12:35.559Z,25.92
2019-03-31T17:15:23.390Z,26.10
2019-03-31T17:18:10.709Z,26.50
2019-03-31T17:20:58.276Z,26.32
2019-03-31T17:23:45.743Z,26.57
2019-03-31T17:26:33.338Z,26.68
2019-03-31T17:29:23.666Z,26.95
2019-03-31T17:32:11.994Z,27.02
2019-03-31T17:35:01.184Z,27.19
2019-03-31T17:37:48.644Z,27.58
2019-03-31T17:40:36.279Z,27.45
2019-03-31T17:43:23.718Z,27.75
2019-03-31T17:46:10.866Z,28.00
2019-03-31T17:48:59.072Z,28.07
2019-03-31T17:51:49.343Z,28.32
2019-03-31T17:54:39.456Z,28.33
2019-03-31T17:57:27.884Z,28.35
2019-03-31T18:00:15.998Z,28.55
2019-03-31T18:03:03.775Z,28.61
2019-03-31T18:05:51.161Z,29.00
2019-03-31T18:08:42.297Z,28.65
2019-03-31T18:11:32.322Z,28.92
2019-03-31T18:14:19.774Z,28.90
2019-03-31T18:17:07.611Z,28.68
2019-03-31T18:19:55.571Z,28.96
2019-03-31T18:22:46.458Z,29.06
2019-03-31T18:25:34.110Z,29.23
2019-03-31T18:28:22.041Z,29.27
2019-03-31T18:31:10.332Z,29.12
2019-03-31T18:33:57.977Z,29.17
2019-03-31T18:36:45.672Z,29.23
2019-03-31T18:39:33.165Z,29.55
2019-03-31T18:42:20.384Z,29.78
2019-03-31T18:45:07.956Z,29.56
2019-03-31T18:47:55.377Z,29.49
2019-03-31T18:50:43.220Z,29.71
2019-03-31T18:53:55.877Z,29.52
2019-03-31T18:57:08.415Z,29.73
2019-03-31T19:00:16.168Z,29.84
2019-03-31T19:03:21.624Z,30.13
2019-03-31T19:06:22.456Z,30.10
2019-03-31T19:09:34.813Z,30.20
2019-03-31T19:12:32.716Z,30.38
2019-03-31T19:15:48.707Z,30.07
2019-03-31T19:18:49.225Z,30.22
2019-03-31T19:22:11.168Z,30.30
2019-03-31T19:25:16.577Z,30.38
2019-03-31T19:28:33.715Z,30.51
2019-03-31T19:31:28.326Z,30.84
2019-03-31T19:34:26.711Z,31.26
2019-03-31T19:37:45.366Z,31.04
2019-03-31T19:41:03.305Z,30.74
2019-03-31T19:44:01.116Z,31.14
2019-03-31T19:47:03.991Z,31.45
2019-03-31T19:50:05.548Z,31.51
2019-03-31T19:53:13.176Z,31.28
2019-03-31T19:56:10.690Z,31.19
2019-03-31T19:59:18.022Z,31.38
2019-03-31T20:02:25.461Z,31.15
2019-03-31T20:05:27.366Z,31.42
2019-03-31T20:08:36.153Z,31.54
2019-03-31T20:12:01.062Z,31.62
2019-03-31T20:15:20.320Z,31.64
2019-03-31T20:18:32.863Z,31.90
2019-03-31T20:21:32.360Z,31.79
2019-03-31T20:24:26.493Z,31.88
2019-03-31T20:27:40.502Z,31.90
2019-03-31T20:30:50.068Z,31.95
2019-03-31T20:33:46.997Z,32.14
2019-03-31T20:36:59.872Z,32.23
2019-03-31T20:40:11.864Z,32.31
2019-03-31T20:43:15.331Z,32.44
2019-03-31T20:46:04.552Z,32.30
2019-03-31T20:48:52.481Z,32.72
2019-03-31T20:51:40.102Z,32.83
2019-03-31T20:54:27.563Z,33.04
2019-03-31T20:57:15.864Z,33.01
2019-03-31T21:00:04.057Z,33.11
2019-03-31T21:02:51.888Z,33.17
2019-03-31T21:05:39.020Z,33.07
2019-03-31T21:08:26.290Z,33.03
2019-03-31T21:11:13.986Z,33.49
2019-03-31T21:14:01.515Z,33.46
2019-03-31T21:16:48.712Z,33.76
2019-03-31T21:19:36.199Z,33.50
2019-03-31T21:22:24.071Z,33.63
2019-03-31T21:25:13.677Z,33.55
2019-03-31T21:28:00.818Z,33.57
2019-03-31T21:30:48.589Z,34.09
2019-03-31T21:33:36.259Z,34.53
2019-03-31T21:36:24.326Z,34.14
2019-03-31T21:39:12.076Z,33.85
2019-03-31T21:41:59.792Z,33.79
2019-03-31T21:44:47.041Z,34.03
2019-03-31T21:47:34.748Z,34.32
2019-03-31T21:50:22.902Z,34.59
2019-03-31T21:53:10.679Z,34.41
2019-03-31T21:55:57.899Z,34.45
2019-03-31T21:58:45.541Z,34.26
2019-03-31T22:01:33.323Z,34.55
2019-03-31T22:04:20.955Z,34.49
2019-03-31T22:07:08.352Z,34.59
2019-03-31T22:09:55.945Z,34.82
2019-03-31T22:12:43.612Z,34.98
2019-03-31T22:15:31.336Z,35.06
2019-03-31T22:18:19.364Z,34.93
2019-03-31T22:21:06.708Z,35.08
2019-03-31T22:23:58.226Z,34.96
2019-03-31T22:26:43.148Z,35.13
2019-03-31T22:29:30.597Z,35.50
2019-03-31T22:32:17.961Z,35.82
2019-03-31T22:35:05.802Z,35.98
2019-03-31T22:37:53.338Z,35.89
2019-03-31T22:40:40.435Z,36.08
2019-03-31T22:43:28.198Z,36.01
2019-03-31T22:46:15.366Z,36.05
2019-03-31T22:49:02.841Z,36.23
2019-03-31T22:51:50.658Z,36.20
2019-03-31T22:54:38.096Z,36.06
2019-03-31T22:57:25.874Z,36.69
2019-03-31T23:00:20.358Z,36.82
2019-03-31T23:03:07.976Z,36.85
2019-03-31T23:05:55.363Z,36.64
2019-03-31T23:08:42.970Z,36.92
2019-03-31T23:11:30.435Z,36.77
2019-03-31T23:14:18.231Z,36.99
2019-03-31T23:17:05.406Z,37.09
2019-03-31T23:19:52.904Z,37.25
2019-03-31T23:22:40.416Z,37.04
2019-03-31T23:25:27.596Z,37.03
2019-03-31T23:28:15.504Z,37.32
2019-03-31T23:31:03.806Z,37.51
2019-03-31T23:33:52.723Z,37.72
2019-03-31T23:36:40.768Z,37.61
2019-03-31T23:39:28.611Z,37.67
2019-03-31T23:42:16.075Z,37.59
2019-03-31T23:45:03.941Z,37.53
2019-03-31T23:47:51.592Z,37.61
2019-03-31T23:50:39.073Z,37.59
2019-03-31T23:53:26.762Z,37.68
2019-03-31T23:56:13.848Z,37.93
2019-03-31T23:59:01.395Z,37.75
